sensor_id;sensor_type;location;lat;lon;timestamp;P1;durP1;ratioP1;P2;durP2;ratioP2
21681;SDS011;11002;48.256;10.084;2023-04-03T00:00:53;5.05;;;4.60;;
21681;SDS011;11002;48.256;10.084;2023-04-03T00:03:22;5.00;;;4.30;;
21681;SDS011;11002;48.256;10.084;2023-04-03T00:05:50;5.38;;;4.70;;
21681;SDS011;11002;48.256;10.084;2023-04-03T00:08:18;4.90;;;4.28;;
21681;SDS011;11002;48.256;10.084;2023-04-03T00:10:45;6.97;;;4.80;;
21681;SDS011;11002;48.256;10.084;2023-04-03T00:13:13;4.97;;;4.50;;
21681;SDS011;11002;48.256;10.084;2023-04-03T00:15:41;5.80;;;5.10;;
21681;SDS011;11002;48.256;10.084;2023-04-03T00:18:08;4.95;;;4.45;;
21681;SDS011;11002;48.256;10.084;2023-04-03T00:20:36;6.55;;;4.45;;
21681;SDS011;11002;48.256;10.084;2023-04-03T00:23:05;4.82;;;4.07;;
21681;SDS011;11002;48.256;10.084;2023-04-03T00:25:32;5.25;;;4.40;;
21681;SDS011;11002;48.256;10.084;2023-04-03T00:28:00;6.18;;;5.18;;
21681;SDS011;11002;48.256;10.084;2023-04-03T00:30:27;5.60;;;4.75;;
21681;SDS011;11002;48.256;10.084;2023-04-03T00:32:55;6.43;;;4.95;;
21681;SDS011;11002;48.256;10.084;2023-04-03T00:35:22;4.95;;;4.45;;
21681;SDS011;11002;48.256;10.084;2023-04-03T00:37:51;5.63;;;4.65;;
21681;SDS011;11002;48.256;10.084;2023-04-03T00:40:22;4.88;;;4.43;;
21681;SDS011;11002;48.256;10.084;2023-04-03T00:42:51;5.10;;;4.13;;
21681;SDS011;11002;48.256;10.084;2023-04-03T00:45:24;7.25;;;4.03;;
21681;SDS011;11002;48.256;10.084;2023-04-03T00:47:54;4.97;;;3.85;;
21681;SDS011;11002;48.256;10.084;2023-04-03T00:50:25;6.25;;;4.00;;
21681;SDS011;11002;48.256;10.084;2023-04-03T00:52:53;4.63;;;3.97;;
21681;SDS011;11002;48.256;10.084;2023-04-03T00:55:22;6.75;;;4.43;;
21681;SDS011;11002;48.256;10.084;2023-04-03T00:57:50;5.55;;;4.10;;
21681;SDS011;11002;48.256;10.084;2023-04-03T01:00:19;4.38;;;3.67;;
21681;SDS011;11002;48.256;10.084;2023-04-03T01:02:47;4.65;;;4.13;;
21681;SDS011;11002;48.256;10.084;2023-04-03T01:05:15;4.47;;;4.07;;
21681;SDS011;11002;48.256;10.084;2023-04-03T01:07:44;4.22;;;3.83;;
21681;SDS011;11002;48.256;10.084;2023-04-03T01:10:13;4.22;;;3.72;;
21681;SDS011;11002;48.256;10.084;2023-04-03T01:12:46;4.18;;;3.53;;
21681;SDS011;11002;48.256;10.084;2023-04-03T01:15:16;4.32;;;3.67;;
21681;SDS011;11002;48.256;10.084;2023-04-03T01:17:45;6.65;;;3.90;;
21681;SDS011;11002;48.256;10.084;2023-04-03T01:23:14;5.95;;;3.13;;
21681;SDS011;11002;48.256;10.084;2023-04-03T01:25:51;3.78;;;3.25;;
21681;SDS011;11002;48.256;10.084;2023-04-03T01:28:22;3.83;;;3.30;;
21681;SDS011;11002;48.256;10.084;2023-04-03T01:30:53;4.57;;;3.38;;
21681;SDS011;11002;48.256;10.084;2023-04-03T01:33:27;6.72;;;3.03;;
21681;SDS011;11002;48.256;10.084;2023-04-03T01:35:54;5.53;;;2.97;;
21681;SDS011;11002;48.256;10.084;2023-04-03T01:38:22;4.00;;;3.60;;
21681;SDS011;11002;48.256;10.084;2023-04-03T01:40:49;3.88;;;3.58;;
21681;SDS011;11002;48.256;10.084;2023-04-03T01:43:17;9.93;;;3.88;;
21681;SDS011;11002;48.256;10.084;2023-04-03T01:45:45;4.38;;;3.78;;
21681;SDS011;11002;48.256;10.084;2023-04-03T01:48:15;3.70;;;3.22;;
21681;SDS011;11002;48.256;10.084;2023-04-03T01:50:44;7.10;;;3.13;;
21681;SDS011;11002;48.256;10.084;2023-04-03T01:53:12;4.97;;;3.05;;
21681;SDS011;11002;48.256;10.084;2023-04-03T01:55:39;4.28;;;3.50;;
21681;SDS011;11002;48.256;10.084;2023-04-03T01:58:07;4.90;;;3.25;;
21681;SDS011;11002;48.256;10.084;2023-04-03T02:00:35;3.78;;;3.38;;
21681;SDS011;11002;48.256;10.084;2023-04-03T02:03:02;3.35;;;2.97;;
21681;SDS011;11002;48.256;10.084;2023-04-03T02:05:30;6.68;;;3.72;;
21681;SDS011;11002;48.256;10.084;2023-04-03T02:07:58;4.45;;;3.00;;
21681;SDS011;11002;48.256;10.084;2023-04-03T02:10:26;4.65;;;3.17;;
21681;SDS011;11002;48.256;10.084;2023-04-03T02:12:53;4.68;;;3.00;;
21681;SDS011;11002;48.256;10.084;2023-04-03T02:15:21;5.78;;;2.97;;
21681;SDS011;11002;48.256;10.084;2023-04-03T02:17:48;3.65;;;2.97;;
21681;SDS011;11002;48.256;10.084;2023-04-03T02:20:16;3.83;;;3.13;;
21681;SDS011;11002;48.256;10.084;2023-04-03T02:22:43;3.20;;;2.90;;
21681;SDS011;11002;48.256;10.084;2023-04-03T02:25:13;3.53;;;2.83;;
21681;SDS011;11002;48.256;10.084;2023-04-03T02:27:40;3.45;;;3.15;;
21681;SDS011;11002;48.256;10.084;2023-04-03T02:30:08;3.42;;;2.90;;
21681;SDS011;11002;48.256;10.084;2023-04-03T02:32:36;2.67;;;2.45;;
21681;SDS011;11002;48.256;10.084;2023-04-03T02:35:04;6.30;;;2.80;;
21681;SDS011;11002;48.256;10.084;2023-04-03T02:37:32;3.60;;;2.92;;
21681;SDS011;11002;48.256;10.084;2023-04-03T02:39:59;3.13;;;2.88;;
21681;SDS011;11002;48.256;10.084;2023-04-03T02:42:29;2.75;;;2.55;;
21681;SDS011;11002;48.256;10.084;2023-04-03T02:44:56;3.15;;;2.75;;
21681;SDS011;11002;48.256;10.084;2023-04-03T02:47:25;2.92;;;2.70;;
21681;SDS011;11002;48.256;10.084;2023-04-03T02:49:53;4.32;;;3.28;;
21681;SDS011;11002;48.256;10.084;2023-04-03T02:52:21;3.58;;;2.78;;
21681;SDS011;11002;48.256;10.084;2023-04-03T02:54:50;3.00;;;2.70;;
21681;SDS011;11002;48.256;10.084;2023-04-03T02:57:17;3.42;;;3.00;;
21681;SDS011;11002;48.256;10.084;2023-04-03T02:59:46;2.78;;;2.58;;
21681;SDS011;11002;48.256;10.084;2023-04-03T03:02:13;3.50;;;2.97;;
21681;SDS011;11002;48.256;10.084;2023-04-03T03:04:41;4.45;;;3.17;;
21681;SDS011;11002;48.256;10.084;2023-04-03T03:07:09;3.08;;;2.80;;
21681;SDS011;11002;48.256;10.084;2023-04-03T03:09:36;4.47;;;2.70;;
21681;SDS011;11002;48.256;10.084;2023-04-03T03:12:04;3.38;;;2.65;;
21681;SDS011;11002;48.256;10.084;2023-04-03T03:14:31;4.60;;;3.35;;
21681;SDS011;11002;48.256;10.084;2023-04-03T03:17:00;3.05;;;2.70;;
21681;SDS011;11002;48.256;10.084;2023-04-03T03:19:27;3.17;;;2.58;;
21681;SDS011;11002;48.256;10.084;2023-04-03T03:21:56;3.25;;;2.95;;
21681;SDS011;11002;48.256;10.084;2023-04-03T03:24:23;3.90;;;2.53;;
21681;SDS011;11002;48.256;10.084;2023-04-03T03:26:50;3.28;;;2.92;;
21681;SDS011;11002;48.256;10.084;2023-04-03T03:29:18;4.00;;;3.10;;
21681;SDS011;11002;48.256;10.084;2023-04-03T03:31:46;4.25;;;2.53;;
21681;SDS011;11002;48.256;10.084;2023-04-03T03:34:14;3.17;;;2.70;;
21681;SDS011;11002;48.256;10.084;2023-04-03T03:36:42;3.13;;;2.63;;
21681;SDS011;11002;48.256;10.084;2023-04-03T03:39:10;3.47;;;2.90;;
21681;SDS011;11002;48.256;10.084;2023-04-03T03:41:38;3.13;;;2.83;;
21681;SDS011;11002;48.256;10.084;2023-04-03T03:44:05;3.17;;;2.78;;
21681;SDS011;11002;48.256;10.084;2023-04-03T03:46:33;2.85;;;2.50;;
21681;SDS011;11002;48.256;10.084;2023-04-03T03:49:01;3.75;;;3.00;;
21681;SDS011;11002;48.256;10.084;2023-04-03T03:51:30;4.38;;;3.65;;
21681;SDS011;11002;48.256;10.084;2023-04-03T03:53:57;4.45;;;3.45;;
21681;SDS011;11002;48.256;10.084;2023-04-03T03:56:24;3.20;;;2.80;;
21681;SDS011;11002;48.256;10.084;2023-04-03T03:58:53;2.92;;;2.60;;
21681;SDS011;11002;48.256;10.084;2023-04-03T04:01:22;5.35;;;2.55;;
21681;SDS011;11002;48.256;10.084;2023-04-03T04:03:50;3.42;;;2.70;;
21681;SDS011;11002;48.256;10.084;2023-04-03T04:06:22;3.60;;;3.08;;
21681;SDS011;11002;48.256;10.084;2023-04-03T04:08:54;4.30;;;2.95;;
21681;SDS011;11002;48.256;10.084;2023-04-03T04:11:21;3.00;;;2.67;;
21681;SDS011;11002;48.256;10.084;2023-04-03T04:13:50;3.13;;;2.42;;
21681;SDS011;11002;48.256;10.084;2023-04-03T04:16:20;3.28;;;2.35;;
21681;SDS011;11002;48.256;10.084;2023-04-03T04:18:48;9.45;;;5.97;;
21681;SDS011;11002;48.256;10.084;2023-04-03T04:21:16;6.07;;;3.83;;
21681;SDS011;11002;48.256;10.084;2023-04-03T04:23:44;2.80;;;2.33;;
21681;SDS011;11002;48.256;10.084;2023-04-03T04:26:15;3.30;;;2.30;;
21681;SDS011;11002;48.256;10.084;2023-04-03T04:28:42;2.97;;;2.28;;
21681;SDS011;11002;48.256;10.084;2023-04-03T04:31:10;2.53;;;1.80;;
21681;SDS011;11002;48.256;10.084;2023-04-03T04:33:37;2.42;;;2.00;;
21681;SDS011;11002;48.256;10.084;2023-04-03T04:36:06;3.25;;;1.85;;
21681;SDS011;11002;48.256;10.084;2023-04-03T04:38:34;3.33;;;2.03;;
21681;SDS011;11002;48.256;10.084;2023-04-03T04:41:02;4.05;;;1.90;;
21681;SDS011;11002;48.256;10.084;2023-04-03T04:43:31;3.92;;;1.95;;
21681;SDS011;11002;48.256;10.084;2023-04-03T04:46:02;3.03;;;1.92;;
21681;SDS011;11002;48.256;10.084;2023-04-03T04:48:34;2.63;;;1.95;;
21681;SDS011;11002;48.256;10.084;2023-04-03T04:51:02;2.42;;;1.80;;
21681;SDS011;11002;48.256;10.084;2023-04-03T04:53:30;5.32;;;2.17;;
21681;SDS011;11002;48.256;10.084;2023-04-03T04:55:57;2.50;;;1.88;;
21681;SDS011;11002;48.256;10.084;2023-04-03T04:58:25;3.92;;;2.08;;
21681;SDS011;11002;48.256;10.084;2023-04-03T05:00:59;2.13;;;1.90;;
21681;SDS011;11002;48.256;10.084;2023-04-03T05:03:27;3.83;;;2.45;;
21681;SDS011;11002;48.256;10.084;2023-04-03T05:05:55;4.07;;;2.03;;
21681;SDS011;11002;48.256;10.084;2023-04-03T05:08:23;2.35;;;2.15;;
21681;SDS011;11002;48.256;10.084;2023-04-03T05:10:51;3.78;;;1.90;;
21681;SDS011;11002;48.256;10.084;2023-04-03T05:13:19;2.53;;;1.95;;
21681;SDS011;11002;48.256;10.084;2023-04-03T05:15:47;3.28;;;1.65;;
21681;SDS011;11002;48.256;10.084;2023-04-03T05:18:16;4.07;;;2.20;;
21681;SDS011;11002;48.256;10.084;2023-04-03T05:20:43;4.18;;;2.22;;
21681;SDS011;11002;48.256;10.084;2023-04-03T05:23:10;3.13;;;2.05;;
21681;SDS011;11002;48.256;10.084;2023-04-03T05:25:39;3.78;;;2.20;;
21681;SDS011;11002;48.256;10.084;2023-04-03T05:28:08;3.97;;;2.40;;
21681;SDS011;11002;48.256;10.084;2023-04-03T05:30:35;2.80;;;2.03;;
21681;SDS011;11002;48.256;10.084;2023-04-03T05:33:03;3.78;;;2.28;;
21681;SDS011;11002;48.256;10.084;2023-04-03T05:35:44;3.42;;;2.22;;
21681;SDS011;11002;48.256;10.084;2023-04-03T05:38:17;2.65;;;2.42;;
21681;SDS011;11002;48.256;10.084;2023-04-03T05:40:44;2.03;;;1.83;;
21681;SDS011;11002;48.256;10.084;2023-04-03T05:43:12;2.67;;;2.20;;
21681;SDS011;11002;48.256;10.084;2023-04-03T05:45:42;2.38;;;2.17;;
21681;SDS011;11002;48.256;10.084;2023-04-03T05:48:09;2.42;;;2.17;;
21681;SDS011;11002;48.256;10.084;2023-04-03T05:50:38;1.85;;;1.63;;
21681;SDS011;11002;48.256;10.084;2023-04-03T05:53:12;3.28;;;2.65;;
21681;SDS011;11002;48.256;10.084;2023-04-03T05:55:44;2.15;;;1.95;;
21681;SDS011;11002;48.256;10.084;2023-04-03T05:58:12;3.35;;;1.85;;
21681;SDS011;11002;48.256;10.084;2023-04-03T06:00:41;2.70;;;1.65;;
21681;SDS011;11002;48.256;10.084;2023-04-03T06:03:09;3.47;;;2.13;;
21681;SDS011;11002;48.256;10.084;2023-04-03T06:05:37;2.75;;;2.20;;
21681;SDS011;11002;48.256;10.084;2023-04-03T06:08:05;2.08;;;1.90;;
21681;SDS011;11002;48.256;10.084;2023-04-03T06:10:33;2.50;;;1.88;;
21681;SDS011;11002;48.256;10.084;2023-04-03T06:13:01;2.70;;;2.17;;
21681;SDS011;11002;48.256;10.084;2023-04-03T06:15:29;2.65;;;1.98;;
21681;SDS011;11002;48.256;10.084;2023-04-03T06:17:56;2.85;;;1.95;;
21681;SDS011;11002;48.256;10.084;2023-04-03T06:20:24;4.05;;;2.25;;
21681;SDS011;11002;48.256;10.084;2023-04-03T06:22:52;2.67;;;2.17;;
21681;SDS011;11002;48.256;10.084;2023-04-03T06:25:20;4.25;;;2.20;;
21681;SDS011;11002;48.256;10.084;2023-04-03T06:27:48;2.55;;;2.08;;
21681;SDS011;11002;48.256;10.084;2023-04-03T06:30:16;3.33;;;2.03;;
21681;SDS011;11002;48.256;10.084;2023-04-03T06:32:43;3.38;;;2.22;;
21681;SDS011;11002;48.256;10.084;2023-04-03T06:35:11;2.33;;;2.00;;
21681;SDS011;11002;48.256;10.084;2023-04-03T06:37:38;2.13;;;1.92;;
21681;SDS011;11002;48.256;10.084;2023-04-03T06:40:06;3.15;;;1.90;;
21681;SDS011;11002;48.256;10.084;2023-04-03T06:42:38;2.13;;;1.73;;
21681;SDS011;11002;48.256;10.084;2023-04-03T06:45:11;3.03;;;2.10;;
21681;SDS011;11002;48.256;10.084;2023-04-03T06:47:39;2.85;;;2.00;;
21681;SDS011;11002;48.256;10.084;2023-04-03T06:50:06;2.90;;;2.05;;
21681;SDS011;11002;48.256;10.084;2023-04-03T06:52:37;4.50;;;2.15;;
21681;SDS011;11002;48.256;10.084;2023-04-03T06:55:05;3.38;;;2.28;;
21681;SDS011;11002;48.256;10.084;2023-04-03T06:57:33;3.22;;;2.17;;
21681;SDS011;11002;48.256;10.084;2023-04-03T07:00:01;2.63;;;2.10;;
21681;SDS011;11002;48.256;10.084;2023-04-03T07:02:31;2.30;;;1.83;;
21681;SDS011;11002;48.256;10.084;2023-04-03T07:04:58;2.90;;;2.50;;
21681;SDS011;11002;48.256;10.084;2023-04-03T07:07:26;4.00;;;2.30;;
21681;SDS011;11002;48.256;10.084;2023-04-03T07:09:53;3.88;;;2.13;;
21681;SDS011;11002;48.256;10.084;2023-04-03T07:12:20;3.05;;;2.10;;
21681;SDS011;11002;48.256;10.084;2023-04-03T07:14:48;3.25;;;2.28;;
21681;SDS011;11002;48.256;10.084;2023-04-03T07:17:15;3.60;;;2.60;;
21681;SDS011;11002;48.256;10.084;2023-04-03T07:19:44;4.28;;;2.88;;
21681;SDS011;11002;48.256;10.084;2023-04-03T07:22:11;5.68;;;3.20;;
21681;SDS011;11002;48.256;10.084;2023-04-03T07:24:39;3.83;;;2.97;;
21681;SDS011;11002;48.256;10.084;2023-04-03T07:27:06;3.17;;;2.88;;
21681;SDS011;11002;48.256;10.084;2023-04-03T07:29:34;6.85;;;3.67;;
21681;SDS011;11002;48.256;10.084;2023-04-03T07:32:02;4.47;;;3.03;;
21681;SDS011;11002;48.256;10.084;2023-04-03T07:34:29;4.10;;;3.13;;
21681;SDS011;11002;48.256;10.084;2023-04-03T07:36:59;4.85;;;3.80;;
21681;SDS011;11002;48.256;10.084;2023-04-03T07:39:26;2.50;;;2.30;;
21681;SDS011;11002;48.256;10.084;2023-04-03T07:41:54;4.28;;;3.28;;
21681;SDS011;11002;48.256;10.084;2023-04-03T07:44:22;5.00;;;2.70;;
21681;SDS011;11002;48.256;10.084;2023-04-03T07:46:49;4.95;;;2.53;;
21681;SDS011;11002;48.256;10.084;2023-04-03T07:49:17;5.40;;;3.05;;
21681;SDS011;11002;48.256;10.084;2023-04-03T07:51:44;3.53;;;2.83;;
21681;SDS011;11002;48.256;10.084;2023-04-03T07:54:13;6.43;;;3.03;;
21681;SDS011;11002;48.256;10.084;2023-04-03T07:56:41;4.88;;;2.80;;
21681;SDS011;11002;48.256;10.084;2023-04-03T07:59:09;3.85;;;3.00;;
21681;SDS011;11002;48.256;10.084;2023-04-03T08:01:36;3.05;;;2.45;;
21681;SDS011;11002;48.256;10.084;2023-04-03T08:04:04;4.03;;;2.58;;
21681;SDS011;11002;48.256;10.084;2023-04-03T08:06:32;2.90;;;2.53;;
21681;SDS011;11002;48.256;10.084;2023-04-03T08:09:02;4.72;;;2.60;;
21681;SDS011;11002;48.256;10.084;2023-04-03T08:11:32;3.55;;;2.17;;
21681;SDS011;11002;48.256;10.084;2023-04-03T08:14:02;3.97;;;2.63;;
21681;SDS011;11002;48.256;10.084;2023-04-03T08:16:29;5.07;;;2.55;;
21681;SDS011;11002;48.256;10.084;2023-04-03T08:18:57;5.05;;;2.63;;
21681;SDS011;11002;48.256;10.084;2023-04-03T08:21:24;3.97;;;2.53;;
21681;SDS011;11002;48.256;10.084;2023-04-03T08:23:52;3.97;;;2.55;;
21681;SDS011;11002;48.256;10.084;2023-04-03T08:26:20;3.40;;;2.50;;
21681;SDS011;11002;48.256;10.084;2023-04-03T08:28:49;6.55;;;2.63;;
21681;SDS011;11002;48.256;10.084;2023-04-03T08:31:17;4.32;;;2.63;;
21681;SDS011;11002;48.256;10.084;2023-04-03T08:33:46;3.78;;;2.88;;
21681;SDS011;11002;48.256;10.084;2023-04-03T08:36:16;4.38;;;2.22;;
21681;SDS011;11002;48.256;10.084;2023-04-03T08:38:45;6.10;;;3.35;;
21681;SDS011;11002;48.256;10.084;2023-04-03T08:41:14;4.50;;;3.10;;
21681;SDS011;11002;48.256;10.084;2023-04-03T08:44:02;3.78;;;2.45;;
21681;SDS011;11002;48.256;10.084;2023-04-03T08:46:41;3.63;;;2.50;;
21681;SDS011;11002;48.256;10.084;2023-04-03T08:49:28;8.25;;;4.57;;
21681;SDS011;11002;48.256;10.084;2023-04-03T08:51:58;3.42;;;2.47;;
21681;SDS011;11002;48.256;10.084;2023-04-03T08:54:30;3.00;;;2.20;;
21681;SDS011;11002;48.256;10.084;2023-04-03T08:57:00;5.95;;;2.95;;
21681;SDS011;11002;48.256;10.084;2023-04-03T08:59:34;3.58;;;2.50;;
21681;SDS011;11002;48.256;10.084;2023-04-03T09:02:04;4.22;;;2.90;;
21681;SDS011;11002;48.256;10.084;2023-04-03T09:04:47;3.78;;;2.17;;
21681;SDS011;11002;48.256;10.084;2023-04-03T09:07:16;4.07;;;1.95;;
21681;SDS011;11002;48.256;10.084;2023-04-03T09:09:52;3.35;;;2.60;;
21681;SDS011;11002;48.256;10.084;2023-04-03T09:12:24;3.40;;;2.58;;
21681;SDS011;11002;48.256;10.084;2023-04-03T09:14:59;4.07;;;2.42;;
21681;SDS011;11002;48.256;10.084;2023-04-03T09:17:36;2.60;;;2.40;;
21681;SDS011;11002;48.256;10.084;2023-04-03T09:20:17;4.78;;;2.40;;
21681;SDS011;11002;48.256;10.084;2023-04-03T09:22:51;3.90;;;2.40;;
21681;SDS011;11002;48.256;10.084;2023-04-03T09:25:20;3.90;;;2.25;;
21681;SDS011;11002;48.256;10.084;2023-04-03T09:27:49;5.78;;;2.70;;
21681;SDS011;11002;48.256;10.084;2023-04-03T09:30:19;4.90;;;3.13;;
21681;SDS011;11002;48.256;10.084;2023-04-03T09:32:49;2.55;;;2.05;;
21681;SDS011;11002;48.256;10.084;2023-04-03T09:35:19;3.40;;;2.25;;
21681;SDS011;11002;48.256;10.084;2023-04-03T09:37:49;2.78;;;1.70;;
21681;SDS011;11002;48.256;10.084;2023-04-03T09:40:27;2.50;;;1.95;;
21681;SDS011;11002;48.256;10.084;2023-04-03T09:43:00;2.05;;;1.67;;
21681;SDS011;11002;48.256;10.084;2023-04-03T09:45:30;4.45;;;2.60;;
21681;SDS011;11002;48.256;10.084;2023-04-03T09:48:06;4.30;;;1.83;;
21681;SDS011;11002;48.256;10.084;2023-04-03T09:50:35;1.95;;;1.65;;
21681;SDS011;11002;48.256;10.084;2023-04-03T09:53:07;2.38;;;1.80;;
21681;SDS011;11002;48.256;10.084;2023-04-03T09:55:51;1.92;;;1.40;;
21681;SDS011;11002;48.256;10.084;2023-04-03T09:58:23;2.70;;;1.92;;
21681;SDS011;11002;48.256;10.084;2023-04-03T10:00:57;2.60;;;1.85;;
21681;SDS011;11002;48.256;10.084;2023-04-03T10:03:27;3.05;;;1.63;;
21681;SDS011;11002;48.256;10.084;2023-04-03T10:05:56;3.03;;;1.98;;
21681;SDS011;11002;48.256;10.084;2023-04-03T10:08:25;2.75;;;1.90;;
21681;SDS011;11002;48.256;10.084;2023-04-03T10:11:09;2.17;;;1.90;;
21681;SDS011;11002;48.256;10.084;2023-04-03T10:13:51;2.67;;;1.70;;
21681;SDS011;11002;48.256;10.084;2023-04-03T10:16:22;3.15;;;2.00;;
21681;SDS011;11002;48.256;10.084;2023-04-03T10:18:56;4.47;;;1.85;;
21681;SDS011;11002;48.256;10.084;2023-04-03T10:21:34;3.17;;;1.80;;
21681;SDS011;11002;48.256;10.084;2023-04-03T10:24:10;2.42;;;1.80;;
21681;SDS011;11002;48.256;10.084;2023-04-03T10:26:45;1.80;;;1.70;;
21681;SDS011;11002;48.256;10.084;2023-04-03T10:29:24;3.22;;;1.67;;
21681;SDS011;11002;48.256;10.084;2023-04-03T10:32:06;4.80;;;1.70;;
21681;SDS011;11002;48.256;10.084;2023-04-03T10:34:46;3.00;;;1.85;;
21681;SDS011;11002;48.256;10.084;2023-04-03T10:37:18;3.30;;;1.90;;
21681;SDS011;11002;48.256;10.084;2023-04-03T10:39:53;2.88;;;2.15;;
21681;SDS011;11002;48.256;10.084;2023-04-03T10:42:25;5.43;;;2.00;;
21681;SDS011;11002;48.256;10.084;2023-04-03T10:45:03;2.40;;;1.95;;
21681;SDS011;11002;48.256;10.084;2023-04-03T10:47:46;2.70;;;2.15;;
21681;SDS011;11002;48.256;10.084;2023-04-03T10:50:35;3.83;;;2.35;;
21681;SDS011;11002;48.256;10.084;2023-04-03T10:53:10;4.63;;;3.40;;
21681;SDS011;11002;48.256;10.084;2023-04-03T10:55:43;2.75;;;2.08;;
21681;SDS011;11002;48.256;10.084;2023-04-03T10:58:21;5.70;;;1.85;;
21681;SDS011;11002;48.256;10.084;2023-04-03T11:00:57;4.20;;;2.15;;
21681;SDS011;11002;48.256;10.084;2023-04-03T11:03:32;2.00;;;1.70;;
21681;SDS011;11002;48.256;10.084;2023-04-03T11:06:05;2.88;;;2.13;;
21681;SDS011;11002;48.256;10.084;2023-04-03T11:08:36;4.03;;;2.30;;
21681;SDS011;11002;48.256;10.084;2023-04-03T11:11:11;3.28;;;1.70;;
21681;SDS011;11002;48.256;10.084;2023-04-03T11:13:48;2.58;;;1.85;;
21681;SDS011;11002;48.256;10.084;2023-04-03T11:16:22;4.32;;;2.05;;
21681;SDS011;11002;48.256;10.084;2023-04-03T11:18:54;4.80;;;2.60;;
21681;SDS011;11002;48.256;10.084;2023-04-03T11:21:27;2.92;;;2.30;;
21681;SDS011;11002;48.256;10.084;2023-04-03T11:24:00;5.25;;;3.03;;
21681;SDS011;11002;48.256;10.084;2023-04-03T11:26:35;3.25;;;2.13;;
21681;SDS011;11002;48.256;10.084;2023-04-03T11:29:08;3.13;;;1.88;;
21681;SDS011;11002;48.256;10.084;2023-04-03T11:31:42;2.92;;;2.25;;
21681;SDS011;11002;48.256;10.084;2023-04-03T11:34:26;2.07;;;1.87;;
21681;SDS011;11002;48.256;10.084;2023-04-03T11:37:01;2.72;;;1.90;;
21681;SDS011;11002;48.256;10.084;2023-04-03T11:39:33;2.03;;;1.80;;
21681;SDS011;11002;48.256;10.084;2023-04-03T11:42:16;2.75;;;1.98;;
21681;SDS011;11002;48.256;10.084;2023-04-03T11:44:49;2.20;;;1.50;;
21681;SDS011;11002;48.256;10.084;2023-04-03T11:53:34;2.03;;;1.63;;
21681;SDS011;11002;48.256;10.084;2023-04-03T12:01:51;2.20;;;1.50;;
21681;SDS011;11002;48.256;10.084;2023-04-03T12:04:19;3.03;;;1.95;;
21681;SDS011;11002;48.256;10.084;2023-04-03T12:09:57;4.00;;;2.05;;
21681;SDS011;11002;48.256;10.084;2023-04-03T12:12:37;3.40;;;1.90;;
21681;SDS011;11002;48.256;10.084;2023-04-03T12:15:23;3.08;;;2.00;;
21681;SDS011;11002;48.256;10.084;2023-04-03T12:18:31;2.92;;;2.08;;
21681;SDS011;11002;48.256;10.084;2023-04-03T12:21:07;2.92;;;1.90;;
21681;SDS011;11002;48.256;10.084;2023-04-03T12:23:35;2.53;;;1.83;;
21681;SDS011;11002;48.256;10.084;2023-04-03T12:28:50;3.92;;;2.15;;
21681;SDS011;11002;48.256;10.084;2023-04-03T12:31:19;1.90;;;1.75;;
21681;SDS011;11002;48.256;10.084;2023-04-03T12:33:56;2.38;;;1.73;;
21681;SDS011;11002;48.256;10.084;2023-04-03T12:36:34;4.63;;;2.17;;
21681;SDS011;11002;48.256;10.084;2023-04-03T12:42:20;4.35;;;1.90;;
21681;SDS011;11002;48.256;10.084;2023-04-03T12:45:08;1.70;;;1.27;;
21681;SDS011;11002;48.256;10.084;2023-04-03T12:47:43;1.98;;;1.50;;
21681;SDS011;11002;48.256;10.084;2023-04-03T12:50:18;6.65;;;3.50;;
21681;SDS011;11002;48.256;10.084;2023-04-03T12:52:52;6.28;;;2.28;;
21681;SDS011;11002;48.256;10.084;2023-04-03T12:55:24;3.33;;;1.80;;
21681;SDS011;11002;48.256;10.084;2023-04-03T12:57:53;3.03;;;1.73;;
21681;SDS011;11002;48.256;10.084;2023-04-03T13:00:22;3.35;;;1.88;;
21681;SDS011;11002;48.256;10.084;2023-04-03T13:02:58;4.50;;;2.00;;
21681;SDS011;11002;48.256;10.084;2023-04-03T13:05:26;3.08;;;1.92;;
21681;SDS011;11002;48.256;10.084;2023-04-03T13:07:56;2.28;;;1.58;;
21681;SDS011;11002;48.256;10.084;2023-04-03T13:10:28;3.58;;;1.80;;
21681;SDS011;11002;48.256;10.084;2023-04-03T13:12:58;2.63;;;1.85;;
21681;SDS011;11002;48.256;10.084;2023-04-03T13:15:40;3.40;;;2.63;;
21681;SDS011;11002;48.256;10.084;2023-04-03T13:18:20;2.35;;;1.80;;
21681;SDS011;11002;48.256;10.084;2023-04-03T13:20:53;3.58;;;1.95;;
21681;SDS011;11002;48.256;10.084;2023-04-03T13:23:23;3.97;;;2.38;;
21681;SDS011;11002;48.256;10.084;2023-04-03T13:25:51;3.80;;;2.60;;
21681;SDS011;11002;48.256;10.084;2023-04-03T13:28:21;3.95;;;2.60;;
21681;SDS011;11002;48.256;10.084;2023-04-03T13:30:54;2.60;;;1.45;;
21681;SDS011;11002;48.256;10.084;2023-04-03T13:33:27;2.30;;;1.90;;
21681;SDS011;11002;48.256;10.084;2023-04-03T13:35:57;2.95;;;1.80;;
21681;SDS011;11002;48.256;10.084;2023-04-03T13:38:29;3.65;;;1.80;;
21681;SDS011;11002;48.256;10.084;2023-04-03T13:40:59;2.42;;;2.13;;
21681;SDS011;11002;48.256;10.084;2023-04-03T13:43:31;4.07;;;2.17;;
21681;SDS011;11002;48.256;10.084;2023-04-03T13:46:02;3.78;;;2.60;;
21681;SDS011;11002;48.256;10.084;2023-04-03T13:48:37;4.75;;;1.63;;
21681;SDS011;11002;48.256;10.084;2023-04-03T13:51:16;5.25;;;2.00;;
21681;SDS011;11002;48.256;10.084;2023-04-03T13:53:46;3.70;;;1.95;;
21681;SDS011;11002;48.256;10.084;2023-04-03T13:56:17;3.55;;;1.67;;
21681;SDS011;11002;48.256;10.084;2023-04-03T13:58:57;1.70;;;1.42;;
21681;SDS011;11002;48.256;10.084;2023-04-03T14:01:33;3.35;;;1.60;;
21681;SDS011;11002;48.256;10.084;2023-04-03T14:04:11;4.22;;;2.58;;
21681;SDS011;11002;48.256;10.084;2023-04-03T14:06:41;3.85;;;1.70;;
21681;SDS011;11002;48.256;10.084;2023-04-03T14:09:09;4.80;;;1.90;;
21681;SDS011;11002;48.256;10.084;2023-04-03T14:11:37;3.10;;;2.10;;
21681;SDS011;11002;48.256;10.084;2023-04-03T14:14:10;2.13;;;1.92;;
21681;SDS011;11002;48.256;10.084;2023-04-03T14:16:41;4.00;;;2.38;;
21681;SDS011;11002;48.256;10.084;2023-04-03T14:19:14;3.08;;;1.70;;
21681;SDS011;11002;48.256;10.084;2023-04-03T14:21:46;1.65;;;1.52;;
21681;SDS011;11002;48.256;10.084;2023-04-03T14:24:15;4.05;;;2.28;;
21681;SDS011;11002;48.256;10.084;2023-04-03T14:26:43;5.15;;;2.05;;
21681;SDS011;11002;48.256;10.084;2023-04-03T14:29:12;3.38;;;1.35;;
21681;SDS011;11002;48.256;10.084;2023-04-03T14:31:40;3.03;;;1.90;;
21681;SDS011;11002;48.256;10.084;2023-04-03T14:34:09;2.90;;;1.63;;
21681;SDS011;11002;48.256;10.084;2023-04-03T14:36:37;2.85;;;1.90;;
21681;SDS011;11002;48.256;10.084;2023-04-03T14:39:06;2.35;;;1.75;;
21681;SDS011;11002;48.256;10.084;2023-04-03T14:41:35;2.63;;;1.88;;
21681;SDS011;11002;48.256;10.084;2023-04-03T14:44:02;2.85;;;1.70;;
21681;SDS011;11002;48.256;10.084;2023-04-03T14:46:36;2.53;;;1.70;;
21681;SDS011;11002;48.256;10.084;2023-04-03T14:49:08;4.60;;;2.05;;
21681;SDS011;11002;48.256;10.084;2023-04-03T14:51:40;3.58;;;1.88;;
21681;SDS011;11002;48.256;10.084;2023-04-03T14:54:10;1.50;;;1.40;;
21681;SDS011;11002;48.256;10.084;2023-04-03T14:56:40;3.15;;;1.70;;
21681;SDS011;11002;48.256;10.084;2023-04-03T14:59:09;2.35;;;1.70;;
21681;SDS011;11002;48.256;10.084;2023-04-03T15:01:40;4.90;;;2.40;;
21681;SDS011;11002;48.256;10.084;2023-04-03T15:04:10;2.15;;;1.42;;
21681;SDS011;11002;48.256;10.084;2023-04-03T15:06:38;2.53;;;2.03;;
21681;SDS011;11002;48.256;10.084;2023-04-03T15:09:08;3.67;;;1.42;;
21681;SDS011;11002;48.256;10.084;2023-04-03T15:11:45;2.65;;;1.77;;
21681;SDS011;11002;48.256;10.084;2023-04-03T15:14:12;3.08;;;1.63;;
21681;SDS011;11002;48.256;10.084;2023-04-03T15:16:41;2.30;;;1.70;;